EGKB/BQH METAR and TAF weather

Enter ICAO airport designator
Station Type Date Time Source
EGKB METAR 2021/10/24 20:20 UTC NOAA

EGKB 242020Z 21010KT 9999 2500S BKN006 13/12 Q1016


Station Type Date Time Source
EGKB Decoded METAR 2021/10/24 20:20 UTC NOAA

Biggin Hill , United Kingdom (EGKB) 51-19N 000-02E
Oct 24, 2021 - 04:20 PM EDT / 2021.10.24 2020 UTC
Wind: from the SSW (210 degrees) at 12 MPH (10 KT):0
Visibility: greater than 7 mile(s):0
Sky conditions: mostly cloudy
Temperature: 55 F (13 C)
Dew Point: 53 F (12 C)
Relative Humidity: 93%
Pressure (altimeter): 30.00 in. Hg (1016 hPa)
ob: EGKB 242020Z 21010KT 9999 2500S BKN006 13/12 Q1016
cycle: 20

Station Type Date Time Source
EGKB TAF 2020/08/09 21:40 UTC NOAA

TAF EGKB 092127Z 0921/1021 CNL

Example: see airport list